createdAt,value
2023-04-18T00:01:45.897Z,55.01
2023-04-18T00:04:14.135Z,54.95
2023-04-18T00:06:41.748Z,55.67
2023-04-18T00:09:09.193Z,56.04
2023-04-18T00:11:36.603Z,55.89
2023-04-18T00:14:04.474Z,56.59
2023-04-18T00:16:33.667Z,55.66
2023-04-18T00:19:24.047Z,55.56
2023-04-18T00:21:53.262Z,56.63
2023-04-18T00:24:23.510Z,56.72
2023-04-18T00:26:50.899Z,56.86
2023-04-18T00:29:18.266Z,57.39
2023-04-18T00:31:45.648Z,58.20
2023-04-18T00:34:13.194Z,57.75
2023-04-18T00:36:40.877Z,57.39
2023-04-18T00:39:08.430Z,57.05
2023-04-18T00:41:36.015Z,57.10
2023-04-18T00:44:03.354Z,57.95
2023-04-18T00:46:30.934Z,57.62
2023-04-18T00:48:58.550Z,57.53
2023-04-18T00:51:26.378Z,57.20
2023-04-18T00:53:54.265Z,56.10
2023-04-18T00:56:23.963Z,57.50
2023-04-18T00:58:51.759Z,57.72
2023-04-18T01:01:19.243Z,58.09
2023-04-18T01:03:46.658Z,58.49
2023-04-18T01:06:14.164Z,58.35
2023-04-18T01:08:42.495Z,59.65
2023-04-18T01:11:11.749Z,58.11
2023-04-18T01:13:39.147Z,58.48
2023-04-18T01:16:06.987Z,58.80
2023-04-18T01:18:35.250Z,57.83
2023-04-18T01:21:02.691Z,58.32
2023-04-18T01:23:30.633Z,58.56
2023-04-18T01:25:58.073Z,57.73
2023-04-18T01:28:27.857Z,58.41
2023-04-18T01:30:55.337Z,59.79
2023-04-18T01:33:22.963Z,58.89
2023-04-18T01:35:50.369Z,58.66
2023-04-18T01:38:18.170Z,59.07
2023-04-18T01:40:45.720Z,58.24
2023-04-18T01:43:13.173Z,58.67
2023-04-18T01:45:40.598Z,59.22
2023-04-18T01:48:08.048Z,58.71
2023-04-18T01:50:35.506Z,59.66
2023-04-18T01:53:02.849Z,59.18
2023-04-18T01:55:30.552Z,58.49
2023-04-18T01:57:58.048Z,58.90
2023-04-18T02:00:25.516Z,59.37
2023-04-18T02:02:53.125Z,59.28
2023-04-18T02:05:20.888Z,61.51
2023-04-18T02:07:50.283Z,59.95
2023-04-18T02:10:18.028Z,59.27
2023-04-18T02:12:45.451Z,59.64
2023-04-18T02:15:12.810Z,60.16
2023-04-18T02:17:41.712Z,60.37
2023-04-18T02:20:10.921Z,60.69
2023-04-18T02:22:39.643Z,60.86
2023-04-18T02:25:07.368Z,61.18
2023-04-18T02:27:34.755Z,61.41
2023-04-18T02:30:02.305Z,60.80
2023-04-18T02:32:30.268Z,60.43
2023-04-18T02:34:57.623Z,60.04
2023-04-18T02:37:25.042Z,60.78
2023-04-18T02:39:52.436Z,60.53
2023-04-18T02:42:19.903Z,61.29
2023-04-18T02:44:47.200Z,61.82
2023-04-18T02:47:14.583Z,62.18
2023-04-18T02:49:41.909Z,61.53
2023-04-18T02:52:09.526Z,61.53
2023-04-18T02:54:36.880Z,60.68
2023-04-18T02:57:04.404Z,62.41
2023-04-18T02:59:31.929Z,62.42
2023-04-18T03:01:59.545Z,61.76
2023-04-18T03:04:26.931Z,62.08
2023-04-18T03:06:56.098Z,62.64
2023-04-18T03:09:23.478Z,63.52
2023-04-18T03:11:51.161Z,63.49
2023-04-18T03:14:18.649Z,63.11
2023-04-18T03:16:46.145Z,63.32
2023-04-18T03:19:13.735Z,62.67
2023-04-18T03:21:41.072Z,62.57
2023-04-18T03:24:09.678Z,63.27
2023-04-18T03:26:38.976Z,62.44
2023-04-18T03:29:06.608Z,63.14
2023-04-18T03:31:34.109Z,62.92
2023-04-18T03:34:01.558Z,62.52
2023-04-18T03:36:29.121Z,61.59
2023-04-18T03:38:56.640Z,62.23
2023-04-18T03:41:24.103Z,63.00
2023-04-18T03:43:51.600Z,62.70
2023-04-18T03:46:19.536Z,63.03
2023-04-18T03:48:47.066Z,62.78
2023-04-18T03:51:14.834Z,62.25
2023-04-18T03:53:42.164Z,62.43
2023-04-18T03:56:09.524Z,63.97
2023-04-18T03:58:37.092Z,63.46
2023-04-18T04:01:04.518Z,63.21
2023-04-18T04:03:32.334Z,63.85
2023-04-18T04:05:59.830Z,64.15
2023-04-18T04:08:28.308Z,64.35
2023-04-18T04:10:55.976Z,63.06
2023-04-18T04:13:23.330Z,63.86
2023-04-18T04:15:50.914Z,63.48
2023-04-18T04:18:18.406Z,63.49
2023-04-18T04:20:46.168Z,63.28
2023-04-18T04:23:13.534Z,64.31
2023-04-18T04:25:41.092Z,63.02
2023-04-18T04:28:08.573Z,63.22
2023-04-18T04:30:36.047Z,63.66
2023-04-18T04:33:03.502Z,63.71
2023-04-18T04:35:32.249Z,64.21
2023-04-18T04:38:01.762Z,64.19
2023-04-18T04:40:29.288Z,63.83
2023-04-18T04:42:56.859Z,63.97
2023-04-18T04:45:24.268Z,63.06
2023-04-18T04:47:51.762Z,64.86
2023-04-18T04:50:19.242Z,64.69
2023-04-18T04:52:46.710Z,65.48
2023-04-18T04:55:14.175Z,64.59
2023-04-18T04:57:41.638Z,63.94
2023-04-18T05:00:09.571Z,64.09
2023-04-18T05:02:37.787Z,64.16
2023-04-18T05:05:05.626Z,64.93
2023-04-18T05:07:33.082Z,65.45
2023-04-18T05:10:00.499Z,64.45
2023-04-18T05:12:27.891Z,63.39
2023-04-18T05:14:55.659Z,63.41
2023-04-18T05:17:23.251Z,63.01
2023-04-18T05:19:51.207Z,62.56
2023-04-18T05:22:18.654Z,62.58
2023-04-18T05:24:47.032Z,63.91
2023-04-18T05:27:15.931Z,64.55
2023-04-18T05:29:46.719Z,63.75
2023-04-18T05:32:14.199Z,63.41
2023-04-18T05:34:42.377Z,62.34
2023-04-18T05:37:10.022Z,62.22
2023-04-18T05:39:37.664Z,61.73
2023-04-18T05:42:05.094Z,62.35
2023-04-18T05:44:32.757Z,61.76
2023-04-18T05:47:00.725Z,62.08
2023-04-18T05:49:28.088Z,63.01
2023-04-18T05:51:56.583Z,62.75
2023-04-18T05:54:25.316Z,63.69
2023-04-18T05:56:52.784Z,62.48
2023-04-18T05:59:20.939Z,63.56
2023-04-18T06:01:49.434Z,62.68
2023-04-18T06:04:17.225Z,63.00
2023-04-18T06:06:44.937Z,63.74
2023-04-18T06:09:12.401Z,63.37
2023-04-18T06:11:39.833Z,63.00
2023-04-18T06:14:07.958Z,62.24
2023-04-18T06:16:37.325Z,61.18
2023-04-18T06:19:05.375Z,61.17
2023-04-18T06:21:32.764Z,61.13
2023-04-18T06:24:01.726Z,61.57
2023-04-18T06:26:30.601Z,60.52
2023-04-18T06:28:58.447Z,60.03
2023-04-18T06:31:25.940Z,61.91
2023-04-18T06:33:53.524Z,61.39
2023-04-18T06:36:21.502Z,61.13
2023-04-18T06:38:49.500Z,61.32
2023-04-18T06:41:16.951Z,60.37
2023-04-18T06:43:59.305Z,61.19
2023-04-18T06:46:30.679Z,60.56
2023-04-18T06:48:58.424Z,59.40
2023-04-18T06:51:25.924Z,59.66
2023-04-18T06:53:53.852Z,59.97
2023-04-18T06:56:22.069Z,60.89
2023-04-18T06:58:49.981Z,59.16
2023-04-18T07:01:17.347Z,58.50
2023-04-18T07:03:44.931Z,59.44
2023-04-18T07:06:12.451Z,59.00
2023-04-18T07:08:39.976Z,57.79
2023-04-18T07:11:07.363Z,58.76
2023-04-18T07:13:34.756Z,58.13
2023-04-18T07:16:02.297Z,57.82
2023-04-18T07:18:37.525Z,58.89
2023-04-18T07:21:09.673Z,58.24
2023-04-18T07:23:37.724Z,58.60
2023-04-18T07:26:05.937Z,58.81
2023-04-18T07:28:34.436Z,55.98
2023-04-18T07:31:03.328Z,55.30
2023-04-18T07:33:33.919Z,55.31
2023-04-18T07:36:01.996Z,55.62
2023-04-18T07:38:29.558Z,54.69
2023-04-18T07:41:01.249Z,56.27
2023-04-18T07:43:28.977Z,56.08
2023-04-18T07:45:56.450Z,55.91
2023-04-18T07:48:25.212Z,55.79
2023-04-18T07:50:54.219Z,54.40
2023-04-18T07:53:21.614Z,54.80
2023-04-18T07:55:49.778Z,54.97
2023-04-18T07:58:17.884Z,56.22
2023-04-18T08:00:45.397Z,54.39
2023-04-18T08:03:13.578Z,55.11
2023-04-18T08:05:42.940Z,54.84
2023-04-18T08:08:12.026Z,52.05
2023-04-18T08:10:39.827Z,51.17
2023-04-18T08:13:08.268Z,53.97
2023-04-18T08:15:35.874Z,54.69
2023-04-18T08:18:03.403Z,53.20
2023-04-18T08:20:31.090Z,53.36
2023-04-18T08:23:06.815Z,51.00
2023-04-18T08:25:39.013Z,51.04
2023-04-18T08:28:06.922Z,53.87
2023-04-18T08:30:34.513Z,52.90
2023-04-18T08:33:02.372Z,54.90
2023-04-18T08:35:29.892Z,51.43
2023-04-18T08:37:57.319Z,48.89
2023-04-18T08:40:24.976Z,49.79
2023-04-18T08:42:53.948Z,50.72
2023-04-18T08:45:21.367Z,49.78
2023-04-18T08:47:48.849Z,49.25
2023-04-18T08:50:17.413Z,49.61
2023-04-18T08:52:51.380Z,48.16
2023-04-18T08:55:19.250Z,49.33
2023-04-18T08:57:47.597Z,52.12
2023-04-18T09:00:17.822Z,49.66
2023-04-18T09:02:47.133Z,49.67
2023-04-18T09:05:16.727Z,51.31
2023-04-18T09:07:44.155Z,50.06
2023-04-18T09:10:13.899Z,51.73
2023-04-18T09:12:50.447Z,49.62
2023-04-18T09:15:23.304Z,47.31
2023-04-18T09:17:54.173Z,51.47
2023-04-18T09:20:35.158Z,48.65
2023-04-18T09:23:11.573Z,48.32
2023-04-18T09:25:44.813Z,50.26
2023-04-18T09:28:23.302Z,49.43
2023-04-18T09:30:52.792Z,49.37
2023-04-18T09:33:28.728Z,48.20
2023-04-18T09:35:57.352Z,48.08
2023-04-18T09:38:41.279Z,48.81
2023-04-18T09:41:10.290Z,47.65
2023-04-18T09:43:37.993Z,48.72
2023-04-18T09:46:06.012Z,47.47
2023-04-18T09:48:33.769Z,49.45
2023-04-18T09:51:09.805Z,47.95
2023-04-18T09:53:42.084Z,47.15
2023-04-18T09:56:14.762Z,47.53
2023-04-18T09:58:44.061Z,48.80
2023-04-18T10:01:13.525Z,48.33
2023-04-18T10:03:47.442Z,45.83
2023-04-18T10:06:16.708Z,43.29
2023-04-18T10:08:49.177Z,43.63
2023-04-18T10:11:18.580Z,44.13
2023-04-18T10:13:49.831Z,48.19
2023-04-18T10:16:18.312Z,45.62
2023-04-18T10:18:46.327Z,46.75
2023-04-18T10:21:13.858Z,45.13
2023-04-18T10:23:41.239Z,44.20
2023-04-18T10:26:10.790Z,43.65
2023-04-18T10:28:57.231Z,43.35
2023-04-18T10:31:26.691Z,44.27
2023-04-18T10:34:06.994Z,46.05
2023-04-18T10:36:36.183Z,49.37
2023-04-18T10:39:21.961Z,45.26
2023-04-18T10:41:51.100Z,44.70
2023-04-18T10:44:21.993Z,44.28
2023-04-18T10:46:52.252Z,43.28
2023-04-18T10:49:28.958Z,43.18
2023-04-18T10:51:59.855Z,43.54
2023-04-18T10:54:51.055Z,45.94
2023-04-18T10:57:18.438Z,44.10
2023-04-18T10:59:51.808Z,44.08
2023-04-18T11:02:32.533Z,45.01
2023-04-18T11:05:01.786Z,45.70
2023-04-18T11:07:49.048Z,44.72
2023-04-18T11:10:20.091Z,44.11
2023-04-18T11:12:47.942Z,43.51
2023-04-18T11:15:23.516Z,44.47
2023-04-18T11:17:57.802Z,42.12
2023-04-18T11:20:25.715Z,42.96
2023-04-18T11:22:58.397Z,44.37
2023-04-18T11:25:29.050Z,44.31
2023-04-18T11:28:00.355Z,46.56
2023-04-18T11:30:31.482Z,45.80
2023-04-18T11:32:59.021Z,45.95
2023-04-18T11:35:26.724Z,44.68
2023-04-18T11:37:56.364Z,46.39
2023-04-18T11:40:23.961Z,45.58
2023-04-18T11:42:54.236Z,45.64
2023-04-18T11:45:21.710Z,45.40
2023-04-18T11:47:49.174Z,44.56
2023-04-18T11:50:16.549Z,44.72
2023-04-18T11:52:50.613Z,42.57
2023-04-18T11:55:24.058Z,43.31
2023-04-18T11:57:52.605Z,43.88
2023-04-18T12:00:31.014Z,44.65
2023-04-18T12:03:02.058Z,42.79
2023-04-18T12:05:31.002Z,41.94
2023-04-18T12:08:25.212Z,42.54
2023-04-18T12:10:54.234Z,42.06
2023-04-18T12:13:31.186Z,42.40
2023-04-18T12:16:02.394Z,40.59
2023-04-18T12:18:31.562Z,40.96
2023-04-18T12:21:02.124Z,41.19
2023-04-18T12:23:37.132Z,41.12
2023-04-18T12:26:05.804Z,40.77
2023-04-18T12:28:34.604Z,40.71
2023-04-18T12:31:02.632Z,40.85
2023-04-18T12:33:30.636Z,39.19
2023-04-18T12:35:57.979Z,38.68
2023-04-18T12:38:25.770Z,39.65
2023-04-18T12:40:53.275Z,38.81
2023-04-18T12:43:21.092Z,37.88
2023-04-18T12:45:51.213Z,38.07
2023-04-18T12:48:18.977Z,38.86
2023-04-18T12:50:46.417Z,37.50
2023-04-18T12:53:13.773Z,37.79
2023-04-18T12:55:41.293Z,38.28
2023-04-18T12:58:08.636Z,38.46
2023-04-18T13:00:36.461Z,37.12
2023-04-18T13:03:04.202Z,37.97
2023-04-18T13:05:34.026Z,37.43
2023-04-18T13:10:32.551Z,37.31
2023-04-18T13:13:00.050Z,37.69
2023-04-18T13:15:27.721Z,36.55
2023-04-18T13:17:58.569Z,37.84
2023-04-18T13:20:26.377Z,38.12
2023-04-18T13:22:53.759Z,37.27
2023-04-18T13:25:21.809Z,36.80
2023-04-18T13:27:50.490Z,35.93
2023-04-18T13:30:18.469Z,37.00
2023-04-18T13:32:46.257Z,38.03
2023-04-18T13:35:14.922Z,38.81
2023-04-18T13:37:42.717Z,39.99
2023-04-18T13:40:10.535Z,39.74
2023-04-18T13:42:38.852Z,38.86
2023-04-18T13:45:06.590Z,38.19
2023-04-18T13:47:34.601Z,38.15
2023-04-18T13:50:02.165Z,38.12
2023-04-18T13:52:29.755Z,38.47
2023-04-18T13:54:57.153Z,38.82
2023-04-18T13:57:24.533Z,38.78
2023-04-18T13:59:51.949Z,39.93
2023-04-18T14:02:19.529Z,39.92
2023-04-18T14:04:47.350Z,40.92
2023-04-18T14:07:14.756Z,41.04
2023-04-18T14:09:42.345Z,41.82
2023-04-18T14:12:09.711Z,42.68
2023-04-18T14:14:37.206Z,43.53
2023-04-18T14:17:04.708Z,43.30
2023-04-18T14:19:32.265Z,44.27
2023-04-18T14:21:59.671Z,44.37
2023-04-18T14:24:27.079Z,44.93
2023-04-18T14:26:54.902Z,45.72
2023-04-18T14:29:22.336Z,45.61
2023-04-18T14:31:50.573Z,47.01
2023-04-18T14:34:18.007Z,47.43
2023-04-18T14:36:45.500Z,48.32
2023-04-18T14:39:13.342Z,48.20
2023-04-18T14:41:40.985Z,48.92
2023-04-18T14:44:08.496Z,49.89
2023-04-18T14:46:35.879Z,49.87
2023-04-18T14:49:03.245Z,49.97
2023-04-18T14:51:31.286Z,50.13
2023-04-18T14:53:58.665Z,51.41
2023-04-18T14:56:26.606Z,50.85
2023-04-18T14:58:53.998Z,51.69
2023-04-18T15:01:21.600Z,51.65
2023-04-18T15:03:50.844Z,51.49
2023-04-18T15:06:18.663Z,52.27
2023-04-18T15:08:46.442Z,52.50
2023-04-18T15:11:13.874Z,52.12
2023-04-18T15:13:41.435Z,52.34
2023-04-18T15:16:08.900Z,52.62
2023-04-18T15:18:37.027Z,53.35
2023-04-18T15:21:04.525Z,53.53
2023-04-18T15:23:32.225Z,54.51
2023-04-18T15:25:59.722Z,54.58
2023-04-18T15:28:27.085Z,53.45
2023-04-18T15:30:54.643Z,54.15
2023-04-18T15:33:25.193Z,54.20
2023-04-18T15:35:52.735Z,55.20
2023-04-18T15:38:20.070Z,56.10
2023-04-18T15:40:47.748Z,55.53
2023-04-18T15:43:17.319Z,54.53
2023-04-18T15:45:44.862Z,54.76
2023-04-18T15:48:13.346Z,55.27
2023-04-18T15:50:42.487Z,57.32
2023-04-18T15:53:09.981Z,56.44
2023-04-18T15:55:37.446Z,56.38
2023-04-18T15:58:05.146Z,56.59
2023-04-18T16:00:32.501Z,57.66
2023-04-18T16:02:59.956Z,57.45
2023-04-18T16:05:27.425Z,58.12
2023-04-18T16:07:56.267Z,58.48
2023-04-18T16:10:24.115Z,60.53
2023-04-18T16:12:51.565Z,60.72
2023-04-18T16:15:18.883Z,61.33
2023-04-18T16:17:46.431Z,61.50
2023-04-18T16:20:13.939Z,61.19
2023-04-18T16:22:41.408Z,62.43
2023-04-18T16:25:09.459Z,62.60
2023-04-18T16:27:36.944Z,63.30
2023-04-18T16:30:05.232Z,63.65
2023-04-18T16:32:33.368Z,64.00
2023-04-18T16:35:00.820Z,64.23
2023-04-18T16:37:28.349Z,63.58
2023-04-18T16:39:55.735Z,64.60
2023-04-18T16:42:23.172Z,65.85
2023-04-18T16:44:50.671Z,65.05
2023-04-18T16:47:18.656Z,64.15
2023-04-18T16:49:47.754Z,64.70
2023-04-18T16:52:16.663Z,65.99
2023-04-18T16:54:44.892Z,65.95
2023-04-18T16:57:12.406Z,66.21
2023-04-18T16:59:39.775Z,66.96
2023-04-18T17:02:07.475Z,66.99
2023-04-18T17:04:35.043Z,66.99
2023-04-18T17:07:02.493Z,65.84
2023-04-18T17:09:30.764Z,66.64
2023-04-18T17:11:58.663Z,66.92
2023-04-18T17:14:26.191Z,67.03
2023-04-18T17:16:53.930Z,66.38
2023-04-18T17:19:21.448Z,67.58
2023-04-18T17:21:50.953Z,66.87
2023-04-18T17:24:18.929Z,66.91
2023-04-18T17:26:46.369Z,67.11
2023-04-18T17:29:13.927Z,68.03
2023-04-18T17:31:41.763Z,68.95
2023-04-18T17:34:09.132Z,68.43
2023-04-18T17:36:36.552Z,67.42
2023-04-18T17:39:06.674Z,68.84
2023-04-18T17:41:38.691Z,69.34
2023-04-18T17:44:07.911Z,69.32
2023-04-18T17:46:35.550Z,70.75
2023-04-18T17:49:03.071Z,71.09
2023-04-18T17:51:31.154Z,70.82
2023-04-18T17:53:58.612Z,70.95
2023-04-18T17:56:27.011Z,71.30
2023-04-18T17:58:56.581Z,71.28
2023-04-18T18:01:26.261Z,72.63
2023-04-18T18:03:53.993Z,72.98
2023-04-18T18:06:21.718Z,72.96
2023-04-18T18:08:49.154Z,72.74
2023-04-18T18:11:16.693Z,74.97
2023-04-18T18:13:44.510Z,75.25
2023-04-18T18:16:12.736Z,74.19
2023-04-18T18:18:40.374Z,73.60
2023-04-18T18:21:08.491Z,75.98
2023-04-18T18:23:36.445Z,75.67
2023-04-18T18:26:04.293Z,75.31
2023-04-18T18:28:31.920Z,75.66
2023-04-18T18:30:59.285Z,76.30
2023-04-18T18:33:27.957Z,76.60
2023-04-18T18:35:57.949Z,76.77
2023-04-18T18:38:26.010Z,77.74
2023-04-18T18:40:53.589Z,76.56
2023-04-18T18:43:21.012Z,77.68
2023-04-18T18:45:48.464Z,76.53
2023-04-18T18:48:15.897Z,77.68
2023-04-18T18:50:43.321Z,77.97
2023-04-18T18:53:10.736Z,77.98
2023-04-18T18:55:38.076Z,78.44
2023-04-18T18:58:08.014Z,79.56
2023-04-18T19:00:35.701Z,79.95
2023-04-18T19:03:03.766Z,79.89
2023-04-18T19:05:31.373Z,81.30
2023-04-18T19:07:58.968Z,81.54
2023-04-18T19:10:26.486Z,81.16
2023-04-18T19:12:53.912Z,83.53
2023-04-18T19:15:21.442Z,82.73
2023-04-18T19:17:49.442Z,82.81
2023-04-18T19:20:17.309Z,81.55
2023-04-18T19:22:44.912Z,82.71
2023-04-18T19:25:12.776Z,83.38
2023-04-18T19:27:40.624Z,83.73
2023-04-18T19:30:08.907Z,84.05
2023-04-18T19:32:37.175Z,85.21
2023-04-18T19:35:05.785Z,85.35
2023-04-18T19:37:33.413Z,86.56
2023-04-18T19:40:02.632Z,85.99
2023-04-18T19:42:30.301Z,87.31
2023-04-18T19:44:57.835Z,87.38
2023-04-18T19:47:25.255Z,86.86
2023-04-18T19:49:52.643Z,87.08
2023-04-18T19:52:20.083Z,87.53
2023-04-18T19:54:47.517Z,88.29
2023-04-18T19:57:14.837Z,87.85
2023-04-18T19:59:42.302Z,87.88
2023-04-18T20:02:09.669Z,88.11
2023-04-18T20:04:37.633Z,89.04
2023-04-18T20:07:05.169Z,89.57
2023-04-18T20:09:32.568Z,87.74
2023-04-18T20:12:02.119Z,89.34
2023-04-18T20:14:29.873Z,88.17
2023-04-18T20:16:57.307Z,87.71
2023-04-18T20:19:25.808Z,88.71
2023-04-18T20:21:53.303Z,88.91
2023-04-18T20:24:21.333Z,90.01
2023-04-18T20:26:48.718Z,90.58
2023-04-18T20:29:16.748Z,90.43
2023-04-18T20:31:44.332Z,90.25
2023-04-18T20:34:11.835Z,90.80
2023-04-18T20:36:41.612Z,90.75
2023-04-18T20:39:09.320Z,90.36
2023-04-18T20:41:37.123Z,91.36
2023-04-18T20:44:10.163Z,92.64
2023-04-18T20:46:37.622Z,91.61
2023-04-18T20:49:05.288Z,91.32
2023-04-18T20:51:34.375Z,92.81
2023-04-18T20:54:01.973Z,93.61
2023-04-18T20:56:29.792Z,93.41
2023-04-18T20:58:58.156Z,93.60
2023-04-18T21:01:25.785Z,94.74
2023-04-18T21:03:53.366Z,96.50
2023-04-18T21:06:22.162Z,95.84
2023-04-18T21:08:49.538Z,96.33
2023-04-18T21:11:16.935Z,96.75
2023-04-18T21:13:44.306Z,97.24
2023-04-18T21:16:11.733Z,97.49
2023-04-18T21:18:39.111Z,97.92
2023-04-18T21:21:07.540Z,97.87
2023-04-18T21:23:42.402Z,99.17
2023-04-18T21:26:13.745Z,98.85
2023-04-18T21:28:55.466Z,98.99
2023-04-18T21:31:23.553Z,98.75
2023-04-18T21:33:57.992Z,98.69
2023-04-18T21:36:30.798Z,100.00
2023-04-18T21:39:00.548Z,98.31
2023-04-18T21:41:28.193Z,98.42
2023-04-18T21:43:55.863Z,98.64
2023-04-18T21:46:23.530Z,99.02
2023-04-18T21:48:51.179Z,100.00
2023-04-18T21:51:18.616Z,100.00
2023-04-18T21:53:46.188Z,100.00
2023-04-18T21:56:14.285Z,100.00
2023-04-18T21:58:41.690Z,100.00
2023-04-18T22:01:09.155Z,100.00
2023-04-18T22:03:37.532Z,100.00
2023-04-18T22:06:05.247Z,100.00
2023-04-18T22:08:33.108Z,99.29
2023-04-18T22:11:00.575Z,100.00
2023-04-18T22:13:30.313Z,100.00
2023-04-18T22:15:58.447Z,100.00
2023-04-18T22:18:25.955Z,100.00
2023-04-18T22:20:53.982Z,100.00
2023-04-18T22:23:21.343Z,99.82
2023-04-18T22:25:48.852Z,100.00
2023-04-18T22:28:16.325Z,100.00
2023-04-18T22:30:43.784Z,100.00
2023-04-18T22:33:11.177Z,100.00
2023-04-18T22:35:38.616Z,100.00
2023-04-18T22:38:06.323Z,100.00
2023-04-18T22:40:33.722Z,100.00
2023-04-18T22:43:01.270Z,100.00
2023-04-18T22:45:28.658Z,100.00
2023-04-18T22:47:56.249Z,100.00
2023-04-18T22:50:23.779Z,100.00
2023-04-18T22:52:51.255Z,100.00
2023-04-18T22:55:20.004Z,100.00
2023-04-18T22:57:47.426Z,100.00
2023-04-18T23:00:15.105Z,100.00
2023-04-18T23:02:43.137Z,100.00
2023-04-18T23:05:11.641Z,100.00
2023-04-18T23:07:39.074Z,100.00
2023-04-18T23:10:07.126Z,100.00
2023-04-18T23:12:34.563Z,100.00
2023-04-18T23:15:02.015Z,100.00
2023-04-18T23:17:29.891Z,100.00
2023-04-18T23:19:57.329Z,100.00
2023-04-18T23:22:24.752Z,100.00
2023-04-18T23:24:52.170Z,100.00
2023-04-18T23:27:19.621Z,100.00
2023-04-18T23:29:50.136Z,100.00
2023-04-18T23:32:17.525Z,100.00
2023-04-18T23:34:45.836Z,100.00
2023-04-18T23:37:13.227Z,100.00
2023-04-18T23:39:41.050Z,100.00
2023-04-18T23:42:08.667Z,100.00
2023-04-18T23:44:36.462Z,100.00
2023-04-18T23:47:03.836Z,100.00
2023-04-18T23:49:31.383Z,100.00
2023-04-18T23:51:58.714Z,100.00
2023-04-18T23:54:26.104Z,100.00
2023-04-18T23:56:53.671Z,100.00
2023-04-18T23:59:21.071Z,100.00
